sensor_id;sensor_type;location;lat;lon;timestamp;pressure;altitude;pressure_sealevel;temperature;humidity
76753;BME280;65687;51.308;16.916;2023-02-11T00:01:38;101203.93;;;-0.56;76.75
76753;BME280;65687;51.308;16.916;2023-02-11T00:06:39;101203.39;;;-0.51;76.73
76753;BME280;65687;51.308;16.916;2023-02-11T00:11:41;101199.14;;;-0.48;76.61
76753;BME280;65687;51.308;16.916;2023-02-11T00:16:43;101194.21;;;-0.49;76.56
76753;BME280;65687;51.308;16.916;2023-02-11T00:21:44;101185.86;;;-0.51;76.72
76753;BME280;65687;51.308;16.916;2023-02-11T00:26:46;101183.98;;;-0.56;76.95
76753;BME280;65687;51.308;16.916;2023-02-11T00:31:48;101171.81;;;-0.62;76.73
76753;BME280;65687;51.308;16.916;2023-02-11T00:36:49;101172.77;;;-0.67;77.06
76753;BME280;65687;51.308;16.916;2023-02-11T00:41:52;101168.93;;;-0.67;77.00
76753;BME280;65687;51.308;16.916;2023-02-11T00:46:53;101163.62;;;-0.63;77.00
76753;BME280;65687;51.308;16.916;2023-02-11T00:51:55;101155.09;;;-0.57;77.24
76753;BME280;65687;51.308;16.916;2023-02-11T00:56:56;101150.81;;;-0.56;76.90
76753;BME280;65687;51.308;16.916;2023-02-11T01:01:58;101140.62;;;-0.58;77.17
76753;BME280;65687;51.308;16.916;2023-02-11T01:06:59;101130.16;;;-0.64;77.37
76753;BME280;65687;51.308;16.916;2023-02-11T01:12:01;101120.67;;;-0.71;77.59
76753;BME280;65687;51.308;16.916;2023-02-11T01:17:04;101105.52;;;-0.78;77.80
76753;BME280;65687;51.308;16.916;2023-02-11T01:22:06;101107.52;;;-0.83;77.92
76753;BME280;65687;51.308;16.916;2023-02-11T01:27:07;101097.18;;;-0.86;77.87
76753;BME280;65687;51.308;16.916;2023-02-11T01:32:09;101089.74;;;-0.87;78.21
76753;BME280;65687;51.308;16.916;2023-02-11T01:37:11;101079.53;;;-0.84;78.22
76753;BME280;65687;51.308;16.916;2023-02-11T01:42:16;101065.80;;;-0.77;78.25
76753;BME280;65687;51.308;16.916;2023-02-11T01:47:20;101069.42;;;-0.71;78.10
76753;BME280;65687;51.308;16.916;2023-02-11T01:52:28;101049.48;;;-0.64;78.12
76753;BME280;65687;51.308;16.916;2023-02-11T01:57:34;101043.64;;;-0.62;77.87
76753;BME280;65687;51.308;16.916;2023-02-11T02:07:48;101033.84;;;-0.55;77.60
76753;BME280;65687;51.308;16.916;2023-02-11T02:12:52;101025.64;;;-0.53;77.45
76753;BME280;65687;51.308;16.916;2023-02-11T02:17:57;101025.41;;;-0.52;77.75
76753;BME280;65687;51.308;16.916;2023-02-11T02:33:50;100992.50;;;-0.31;77.10
76753;BME280;65687;51.308;16.916;2023-02-11T02:39:20;100973.85;;;-0.25;76.77
76753;BME280;65687;51.308;16.916;2023-02-11T02:44:24;100973.21;;;-0.23;76.57
76753;BME280;65687;51.308;16.916;2023-02-11T02:49:25;100969.59;;;-0.23;76.47
76753;BME280;65687;51.308;16.916;2023-02-11T03:10:26;100957.09;;;-0.20;76.36
76753;BME280;65687;51.308;16.916;2023-02-11T03:15:32;100963.05;;;-0.11;76.08
76753;BME280;65687;51.308;16.916;2023-02-11T03:20:35;100960.88;;;-0.04;76.00
76753;BME280;65687;51.308;16.916;2023-02-11T03:25:42;100953.92;;;0.00;75.70
76753;BME280;65687;51.308;16.916;2023-02-11T03:30:53;100957.83;;;0.04;75.75
76753;BME280;65687;51.308;16.916;2023-02-11T03:35:59;100948.09;;;0.05;75.86
76753;BME280;65687;51.308;16.916;2023-02-11T03:41:05;100947.84;;;0.04;75.71
76753;BME280;65687;51.308;16.916;2023-02-11T03:46:09;100942.63;;;0.03;75.54
76753;BME280;65687;51.308;16.916;2023-02-11T03:51:13;100945.69;;;0.02;75.54
76753;BME280;65687;51.308;16.916;2023-02-11T03:56:18;100942.90;;;-0.00;76.10
76753;BME280;65687;51.308;16.916;2023-02-11T04:01:21;100933.11;;;-0.02;75.70
76753;BME280;65687;51.308;16.916;2023-02-11T04:06:23;100927.98;;;0.04;75.57
76753;BME280;65687;51.308;16.916;2023-02-11T04:11:24;100907.80;;;0.12;75.66
76753;BME280;65687;51.308;16.916;2023-02-11T04:16:26;100888.14;;;0.15;75.49
76753;BME280;65687;51.308;16.916;2023-02-11T04:21:27;100882.05;;;0.16;75.61
76753;BME280;65687;51.308;16.916;2023-02-11T04:26:29;100877.05;;;0.14;75.15
76753;BME280;65687;51.308;16.916;2023-02-11T04:31:31;100869.36;;;0.11;75.45
76753;BME280;65687;51.308;16.916;2023-02-11T04:36:32;100878.38;;;0.09;75.26
76753;BME280;65687;51.308;16.916;2023-02-11T04:41:34;100882.23;;;0.08;75.37
76753;BME280;65687;51.308;16.916;2023-02-11T04:46:35;100875.92;;;0.05;75.56
76753;BME280;65687;51.308;16.916;2023-02-11T04:51:37;100863.90;;;0.03;75.51
76753;BME280;65687;51.308;16.916;2023-02-11T04:56:39;100853.33;;;0.08;75.52
76753;BME280;65687;51.308;16.916;2023-02-11T05:01:40;100840.66;;;0.17;75.25
76753;BME280;65687;51.308;16.916;2023-02-11T05:06:42;100828.58;;;0.22;75.35
76753;BME280;65687;51.308;16.916;2023-02-11T05:11:43;100813.40;;;0.26;75.50
76753;BME280;65687;51.308;16.916;2023-02-11T05:16:45;100817.20;;;0.26;75.35
76753;BME280;65687;51.308;16.916;2023-02-11T05:21:46;100825.64;;;0.27;75.72
76753;BME280;65687;51.308;16.916;2023-02-11T05:26:48;100826.96;;;0.27;75.78
76753;BME280;65687;51.308;16.916;2023-02-11T05:31:49;100821.77;;;0.27;75.94
76753;BME280;65687;51.308;16.916;2023-02-11T05:36:51;100810.48;;;0.28;76.28
76753;BME280;65687;51.308;16.916;2023-02-11T05:41:52;100804.33;;;0.39;76.55
76753;BME280;65687;51.308;16.916;2023-02-11T05:46:54;100798.90;;;0.60;76.96
76753;BME280;65687;51.308;16.916;2023-02-11T05:51:56;100798.08;;;0.80;77.30
76753;BME280;65687;51.308;16.916;2023-02-11T05:56:57;100794.35;;;1.00;78.09
76753;BME280;65687;51.308;16.916;2023-02-11T06:01:59;100800.84;;;1.12;77.70
76753;BME280;65687;51.308;16.916;2023-02-11T06:07:00;100798.24;;;1.24;78.39
76753;BME280;65687;51.308;16.916;2023-02-11T06:12:02;100793.34;;;1.39;78.08
76753;BME280;65687;51.308;16.916;2023-02-11T06:17:04;100792.11;;;1.51;78.06
76753;BME280;65687;51.308;16.916;2023-02-11T06:22:05;100789.35;;;1.58;77.87
76753;BME280;65687;51.308;16.916;2023-02-11T06:27:07;100784.58;;;1.60;77.89
76753;BME280;65687;51.308;16.916;2023-02-11T06:32:08;100782.65;;;1.60;78.21
76753;BME280;65687;51.308;16.916;2023-02-11T06:37:10;100782.20;;;1.65;77.69
76753;BME280;65687;51.308;16.916;2023-02-11T06:42:11;100778.47;;;1.74;77.74
76753;BME280;65687;51.308;16.916;2023-02-11T06:47:13;100779.30;;;1.80;77.59
76753;BME280;65687;51.308;16.916;2023-02-11T06:52:14;100778.98;;;1.82;77.62
76753;BME280;65687;51.308;16.916;2023-02-11T06:57:16;100775.94;;;1.81;78.07
76753;BME280;65687;51.308;16.916;2023-02-11T07:02:17;100771.73;;;1.84;78.04
76753;BME280;65687;51.308;16.916;2023-02-11T07:07:19;100764.25;;;1.91;78.07
76753;BME280;65687;51.308;16.916;2023-02-11T07:12:21;100768.48;;;1.98;78.40
76753;BME280;65687;51.308;16.916;2023-02-11T07:17:23;100769.46;;;1.99;78.65
76753;BME280;65687;51.308;16.916;2023-02-11T07:22:24;100765.57;;;1.99;78.56
76753;BME280;65687;51.308;16.916;2023-02-11T07:27:26;100759.70;;;2.02;79.01
76753;BME280;65687;51.308;16.916;2023-02-11T07:32:27;100768.21;;;2.07;78.80
76753;BME280;65687;51.308;16.916;2023-02-11T07:37:29;100774.73;;;2.12;78.97
76753;BME280;65687;51.308;16.916;2023-02-11T07:42:33;100774.51;;;2.12;79.54
76753;BME280;65687;51.308;16.916;2023-02-11T07:47:34;100769.15;;;2.07;79.56
76753;BME280;65687;51.308;16.916;2023-02-11T07:52:36;100764.01;;;2.04;80.38
76753;BME280;65687;51.308;16.916;2023-02-11T07:57:37;100760.61;;;2.05;81.06
76753;BME280;65687;51.308;16.916;2023-02-11T08:02:39;100764.25;;;2.06;81.02
76753;BME280;65687;51.308;16.916;2023-02-11T08:07:41;100771.84;;;2.03;81.88
76753;BME280;65687;51.308;16.916;2023-02-11T08:12:42;100775.50;;;1.97;82.38
76753;BME280;65687;51.308;16.916;2023-02-11T08:17:44;100780.02;;;1.97;82.59
76753;BME280;65687;51.308;16.916;2023-02-11T08:22:45;100783.30;;;2.01;82.77
76753;BME280;65687;51.308;16.916;2023-02-11T08:27:47;100776.18;;;2.00;83.12
76753;BME280;65687;51.308;16.916;2023-02-11T08:32:48;100772.00;;;1.95;83.75
76753;BME280;65687;51.308;16.916;2023-02-11T08:37:50;100765.35;;;1.95;84.04
76753;BME280;65687;51.308;16.916;2023-02-11T08:42:52;100765.36;;;2.00;84.43
76753;BME280;65687;51.308;16.916;2023-02-11T08:47:54;100752.37;;;2.04;84.51
76753;BME280;65687;51.308;16.916;2023-02-11T08:52:55;100748.44;;;2.06;85.08
76753;BME280;65687;51.308;16.916;2023-02-11T08:57:57;100727.87;;;2.07;84.91
76753;BME280;65687;51.308;16.916;2023-02-11T09:02:58;100720.82;;;2.10;84.87
76753;BME280;65687;51.308;16.916;2023-02-11T09:08:01;100710.52;;;2.17;85.04
76753;BME280;65687;51.308;16.916;2023-02-11T09:13:03;100709.08;;;2.27;84.96
76753;BME280;65687;51.308;16.916;2023-02-11T09:18:05;100705.86;;;2.38;84.75
76753;BME280;65687;51.308;16.916;2023-02-11T09:23:06;100707.52;;;2.47;84.54
76753;BME280;65687;51.308;16.916;2023-02-11T09:28:08;100711.70;;;2.52;84.23
76753;BME280;65687;51.308;16.916;2023-02-11T09:33:09;100708.58;;;2.58;83.87
76753;BME280;65687;51.308;16.916;2023-02-11T09:38:11;100704.06;;;2.69;83.59
76753;BME280;65687;51.308;16.916;2023-02-11T09:43:18;100699.19;;;2.81;83.32
76753;BME280;65687;51.308;16.916;2023-02-11T09:48:21;100705.27;;;2.89;83.33
76753;BME280;65687;51.308;16.916;2023-02-11T09:53:27;100706.83;;;2.94;83.04
76753;BME280;65687;51.308;16.916;2023-02-11T09:58:41;100707.18;;;2.99;83.00
76753;BME280;65687;51.308;16.916;2023-02-11T10:03:58;100685.59;;;3.06;83.09
76753;BME280;65687;51.308;16.916;2023-02-11T10:20:07;100669.37;;;3.18;82.27
76753;BME280;65687;51.308;16.916;2023-02-11T10:25:20;100670.66;;;3.29;82.52
76753;BME280;65687;51.308;16.916;2023-02-11T10:30:30;100682.88;;;3.35;82.42
76753;BME280;65687;51.308;16.916;2023-02-11T10:35:32;100668.13;;;3.38;82.42
76753;BME280;65687;51.308;16.916;2023-02-11T10:40:34;100662.12;;;3.43;82.22
76753;BME280;65687;51.308;16.916;2023-02-11T10:45:38;100663.05;;;3.51;81.80
76753;BME280;65687;51.308;16.916;2023-02-11T10:50:40;100661.84;;;3.57;81.89
76753;BME280;65687;51.308;16.916;2023-02-11T10:55:59;100650.64;;;3.61;81.80
76753;BME280;65687;51.308;16.916;2023-02-11T11:01:01;100650.79;;;3.68;81.92
76753;BME280;65687;51.308;16.916;2023-02-11T11:06:05;100663.05;;;3.75;81.73
76753;BME280;65687;51.308;16.916;2023-02-11T11:11:10;100658.48;;;3.76;81.48
76753;BME280;65687;51.308;16.916;2023-02-11T11:21:25;100630.96;;;3.95;81.41
76753;BME280;65687;51.308;16.916;2023-02-11T11:26:38;100645.72;;;4.00;81.42
76753;BME280;65687;51.308;16.916;2023-02-11T11:31:55;100646.59;;;4.03;81.28
76753;BME280;65687;51.308;16.916;2023-02-11T11:37:09;100649.98;;;4.10;81.10
76753;BME280;65687;51.308;16.916;2023-02-11T11:47:35;100655.77;;;4.09;81.25
76753;BME280;65687;51.308;16.916;2023-02-11T11:52:51;100665.61;;;4.09;81.61
76753;BME280;65687;51.308;16.916;2023-02-11T11:57:55;100647.73;;;4.09;81.68
76753;BME280;65687;51.308;16.916;2023-02-11T12:08:35;100622.21;;;4.05;82.15
76753;BME280;65687;51.308;16.916;2023-02-11T12:19:22;100602.00;;;4.10;81.82
76753;BME280;65687;51.308;16.916;2023-02-11T12:29:43;100593.30;;;4.15;81.60
76753;BME280;65687;51.308;16.916;2023-02-11T12:40:14;100565.33;;;4.21;81.27
76753;BME280;65687;51.308;16.916;2023-02-11T12:45:21;100574.12;;;4.25;81.09
76753;BME280;65687;51.308;16.916;2023-02-11T12:56:21;100593.63;;;4.31;80.65
76753;BME280;65687;51.308;16.916;2023-02-11T13:01:37;100579.15;;;4.34;80.69
76753;BME280;65687;51.308;16.916;2023-02-11T13:06:50;100575.17;;;4.34;80.57
76753;BME280;65687;51.308;16.916;2023-02-11T13:11:57;100587.23;;;4.38;80.38
76753;BME280;65687;51.308;16.916;2023-02-11T13:17:34;100582.40;;;4.46;80.20
76753;BME280;65687;51.308;16.916;2023-02-11T13:22:45;100572.55;;;4.54;79.92
76753;BME280;65687;51.308;16.916;2023-02-11T13:28:24;100569.66;;;4.57;79.82
76753;BME280;65687;51.308;16.916;2023-02-11T13:38:35;100563.86;;;4.64;79.54
76753;BME280;65687;51.308;16.916;2023-02-11T13:43:37;100566.43;;;4.65;79.53
76753;BME280;65687;51.308;16.916;2023-02-11T13:48:48;100571.63;;;4.63;79.54
76753;BME280;65687;51.308;16.916;2023-02-11T13:53:55;100578.07;;;4.64;79.63
76753;BME280;65687;51.308;16.916;2023-02-11T13:59:00;100573.64;;;4.67;79.55
76753;BME280;65687;51.308;16.916;2023-02-11T14:04:20;100576.70;;;4.69;79.56
76753;BME280;65687;51.308;16.916;2023-02-11T14:09:41;100590.11;;;4.66;79.75
76753;BME280;65687;51.308;16.916;2023-02-11T14:15:00;100604.29;;;4.65;79.83
76753;BME280;65687;51.308;16.916;2023-02-11T14:20:03;100612.66;;;4.69;80.02
76753;BME280;65687;51.308;16.916;2023-02-11T14:25:25;100622.13;;;4.72;79.86
76753;BME280;65687;51.308;16.916;2023-02-11T14:31:09;100629.16;;;4.72;80.31
76753;BME280;65687;51.308;16.916;2023-02-11T14:41:28;100640.47;;;4.76;80.70
76753;BME280;65687;51.308;16.916;2023-02-11T14:46:31;100650.85;;;4.75;81.44
76753;BME280;65687;51.308;16.916;2023-02-11T14:51:35;100650.42;;;4.68;81.85
76753;BME280;65687;51.308;16.916;2023-02-11T14:56:38;100647.50;;;4.61;82.46
76753;BME280;65687;51.308;16.916;2023-02-11T15:01:40;100655.60;;;4.58;82.74
76753;BME280;65687;51.308;16.916;2023-02-11T15:06:46;100643.73;;;4.57;83.37
76753;BME280;65687;51.308;16.916;2023-02-11T15:11:50;100634.10;;;4.54;83.79
76753;BME280;65687;51.308;16.916;2023-02-11T15:16:53;100637.67;;;4.48;84.21
76753;BME280;65687;51.308;16.916;2023-02-11T15:21:57;100648.68;;;4.41;84.56
76753;BME280;65687;51.308;16.916;2023-02-11T15:32:19;100659.38;;;4.32;84.91
76753;BME280;65687;51.308;16.916;2023-02-11T15:37:22;100663.91;;;4.34;85.05
76753;BME280;65687;51.308;16.916;2023-02-11T15:42:29;100666.14;;;4.36;85.23
76753;BME280;65687;51.308;16.916;2023-02-11T15:47:31;100670.09;;;4.35;85.44
76753;BME280;65687;51.308;16.916;2023-02-11T15:52:32;100672.87;;;4.33;85.40
76753;BME280;65687;51.308;16.916;2023-02-11T15:57:34;100675.88;;;4.30;85.49
76753;BME280;65687;51.308;16.916;2023-02-11T16:02:37;100678.45;;;4.30;85.59
76753;BME280;65687;51.308;16.916;2023-02-11T16:07:47;100677.47;;;4.34;85.66
76753;BME280;65687;51.308;16.916;2023-02-11T16:12:52;100677.02;;;4.37;85.67
76753;BME280;65687;51.308;16.916;2023-02-11T16:17:54;100675.17;;;4.36;85.87
76753;BME280;65687;51.308;16.916;2023-02-11T16:22:55;100676.81;;;4.32;85.89
76753;BME280;65687;51.308;16.916;2023-02-11T16:27:57;100686.36;;;4.34;85.81
76753;BME280;65687;51.308;16.916;2023-02-11T16:32:58;100693.27;;;4.39;85.82
76753;BME280;65687;51.308;16.916;2023-02-11T16:38:00;100697.05;;;4.43;85.55
76753;BME280;65687;51.308;16.916;2023-02-11T16:43:02;100700.97;;;4.43;85.63
76753;BME280;65687;51.308;16.916;2023-02-11T16:48:07;100708.77;;;4.40;85.63
76753;BME280;65687;51.308;16.916;2023-02-11T16:53:09;100723.05;;;4.43;85.84
76753;BME280;65687;51.308;16.916;2023-02-11T16:58:11;100726.70;;;4.45;85.91
76753;BME280;65687;51.308;16.916;2023-02-11T17:03:24;100732.33;;;4.46;85.87
76753;BME280;65687;51.308;16.916;2023-02-11T17:08:27;100739.70;;;4.43;85.98
76753;BME280;65687;51.308;16.916;2023-02-11T17:13:28;100759.57;;;4.41;86.02
76753;BME280;65687;51.308;16.916;2023-02-11T17:18:30;100762.67;;;4.42;85.95
76753;BME280;65687;51.308;16.916;2023-02-11T17:23:31;100772.00;;;4.47;86.12
76753;BME280;65687;51.308;16.916;2023-02-11T17:28:33;100780.21;;;4.52;85.85
76753;BME280;65687;51.308;16.916;2023-02-11T17:33:35;100784.70;;;4.54;85.98
76753;BME280;65687;51.308;16.916;2023-02-11T17:38:38;100789.78;;;4.55;85.68
76753;BME280;65687;51.308;16.916;2023-02-11T17:43:42;100793.11;;;4.55;85.78
76753;BME280;65687;51.308;16.916;2023-02-11T17:48:44;100792.00;;;4.59;85.89
76753;BME280;65687;51.308;16.916;2023-02-11T17:53:45;100802.96;;;4.60;85.96
76753;BME280;65687;51.308;16.916;2023-02-11T17:58:47;100796.77;;;4.58;85.86
76753;BME280;65687;51.308;16.916;2023-02-11T18:03:48;100808.42;;;4.59;85.99
76753;BME280;65687;51.308;16.916;2023-02-11T18:08:50;100808.30;;;4.61;85.89
76753;BME280;65687;51.308;16.916;2023-02-11T18:13:52;100809.22;;;4.62;85.86
76753;BME280;65687;51.308;16.916;2023-02-11T18:18:56;100806.69;;;4.60;85.99
76753;BME280;65687;51.308;16.916;2023-02-11T18:23:58;100807.84;;;4.57;86.40
76753;BME280;65687;51.308;16.916;2023-02-11T18:29:00;100805.67;;;4.58;86.31
76753;BME280;65687;51.308;16.916;2023-02-11T18:34:04;100816.34;;;4.63;86.53
76753;BME280;65687;51.308;16.916;2023-02-11T18:39:07;100816.83;;;4.66;86.43
76753;BME280;65687;51.308;16.916;2023-02-11T18:44:10;100824.77;;;4.67;86.47
76753;BME280;65687;51.308;16.916;2023-02-11T18:49:12;100829.64;;;4.67;86.43
76753;BME280;65687;51.308;16.916;2023-02-11T18:54:13;100834.60;;;4.70;86.32
76753;BME280;65687;51.308;16.916;2023-02-11T18:59:15;100831.33;;;4.75;86.25
76753;BME280;65687;51.308;16.916;2023-02-11T19:04:16;100837.50;;;4.78;86.38
76753;BME280;65687;51.308;16.916;2023-02-11T19:09:20;100848.79;;;4.76;86.30
76753;BME280;65687;51.308;16.916;2023-02-11T19:14:24;100857.25;;;4.72;86.48
76753;BME280;65687;51.308;16.916;2023-02-11T19:19:28;100863.50;;;4.72;86.44
76753;BME280;65687;51.308;16.916;2023-02-11T19:24:30;100869.39;;;4.77;86.72
76753;BME280;65687;51.308;16.916;2023-02-11T19:29:31;100877.30;;;4.81;86.64
76753;BME280;65687;51.308;16.916;2023-02-11T19:34:36;100878.23;;;4.79;86.57
76753;BME280;65687;51.308;16.916;2023-02-11T19:39:42;100877.67;;;4.77;86.82
76753;BME280;65687;51.308;16.916;2023-02-11T19:44:44;100880.89;;;4.78;86.74
76753;BME280;65687;51.308;16.916;2023-02-11T19:49:45;100878.02;;;4.80;86.81
76753;BME280;65687;51.308;16.916;2023-02-11T19:54:47;100878.70;;;4.83;86.69
76753;BME280;65687;51.308;16.916;2023-02-11T19:59:48;100879.99;;;4.83;86.79
76753;BME280;65687;51.308;16.916;2023-02-11T20:04:51;100888.68;;;4.81;86.69
76753;BME280;65687;51.308;16.916;2023-02-11T20:09:52;100891.33;;;4.81;86.78
76753;BME280;65687;51.308;16.916;2023-02-11T20:14:54;100891.31;;;4.84;86.86
76753;BME280;65687;51.308;16.916;2023-02-11T20:19:56;100898.81;;;4.88;86.91
76753;BME280;65687;51.308;16.916;2023-02-11T20:24:57;100907.91;;;4.87;87.02
76753;BME280;65687;51.308;16.916;2023-02-11T20:29:59;100911.81;;;4.86;87.12
76753;BME280;65687;51.308;16.916;2023-02-11T20:35:00;100918.58;;;4.87;86.97
76753;BME280;65687;51.308;16.916;2023-02-11T20:40:02;100928.23;;;4.89;87.27
76753;BME280;65687;51.308;16.916;2023-02-11T20:45:04;100938.56;;;4.95;87.13
76753;BME280;65687;51.308;16.916;2023-02-11T20:50:06;100946.18;;;4.98;87.07
76753;BME280;65687;51.308;16.916;2023-02-11T20:55:07;100946.55;;;4.97;87.13
76753;BME280;65687;51.308;16.916;2023-02-11T21:00:09;100954.17;;;4.99;87.10
76753;BME280;65687;51.308;16.916;2023-02-11T21:05:13;100959.02;;;5.02;87.08
76753;BME280;65687;51.308;16.916;2023-02-11T21:10:15;100970.45;;;5.09;87.08
76753;BME280;65687;51.308;16.916;2023-02-11T21:15:16;100975.92;;;5.10;86.93
76753;BME280;65687;51.308;16.916;2023-02-11T21:20:18;100988.04;;;5.08;86.94
76753;BME280;65687;51.308;16.916;2023-02-11T21:25:19;100979.18;;;5.08;86.94
76753;BME280;65687;51.308;16.916;2023-02-11T21:30:22;100988.02;;;5.12;86.95
76753;BME280;65687;51.308;16.916;2023-02-11T21:35:24;100997.77;;;5.17;87.02
76753;BME280;65687;51.308;16.916;2023-02-11T21:40:26;101012.63;;;5.15;86.87
76753;BME280;65687;51.308;16.916;2023-02-11T21:45:29;101018.14;;;5.13;86.79
76753;BME280;65687;51.308;16.916;2023-02-11T21:50:30;101018.99;;;5.14;86.84
76753;BME280;65687;51.308;16.916;2023-02-11T21:55:32;101030.85;;;5.16;86.75
76753;BME280;65687;51.308;16.916;2023-02-11T22:00:34;101041.44;;;5.16;86.58
76753;BME280;65687;51.308;16.916;2023-02-11T22:05:38;101046.20;;;5.14;86.83
76753;BME280;65687;51.308;16.916;2023-02-11T22:10:40;101052.29;;;5.15;86.78
76753;BME280;65687;51.308;16.916;2023-02-11T22:15:42;101059.44;;;5.17;86.71
76753;BME280;65687;51.308;16.916;2023-02-11T22:20:43;101070.80;;;5.19;86.71
76753;BME280;65687;51.308;16.916;2023-02-11T22:25:45;101076.53;;;5.18;86.63
76753;BME280;65687;51.308;16.916;2023-02-11T22:30:55;101085.86;;;5.20;86.73
76753;BME280;65687;51.308;16.916;2023-02-11T22:36:02;101086.06;;;5.24;86.74
76753;BME280;65687;51.308;16.916;2023-02-11T22:41:06;101095.05;;;5.22;86.58
76753;BME280;65687;51.308;16.916;2023-02-11T22:46:13;101092.31;;;5.18;86.76
76753;BME280;65687;51.308;16.916;2023-02-11T22:51:21;101098.70;;;5.20;86.79
76753;BME280;65687;51.308;16.916;2023-02-11T22:56:23;101099.35;;;5.23;86.70
76753;BME280;65687;51.308;16.916;2023-02-11T23:01:26;101100.84;;;5.21;86.62
76753;BME280;65687;51.308;16.916;2023-02-11T23:06:28;101114.70;;;5.21;86.55
76753;BME280;65687;51.308;16.916;2023-02-11T23:11:30;101109.65;;;5.23;86.54
76753;BME280;65687;51.308;16.916;2023-02-11T23:16:33;101114.63;;;5.20;86.61
76753;BME280;65687;51.308;16.916;2023-02-11T23:21:36;101110.52;;;5.19;86.52
76753;BME280;65687;51.308;16.916;2023-02-11T23:26:39;101110.63;;;5.17;86.51
76753;BME280;65687;51.308;16.916;2023-02-11T23:31:42;101117.48;;;5.20;86.57
76753;BME280;65687;51.308;16.916;2023-02-11T23:36:46;101138.58;;;5.20;86.59
76753;BME280;65687;51.308;16.916;2023-02-11T23:41:47;101142.22;;;5.18;86.75
76753;BME280;65687;51.308;16.916;2023-02-11T23:46:49;101148.42;;;5.21;86.70
76753;BME280;65687;51.308;16.916;2023-02-11T23:51:50;101144.61;;;5.23;86.40
76753;BME280;65687;51.308;16.916;2023-02-11T23:56:52;101154.69;;;5.20;86.66
